Flight Track Log - Related Links

Times and Time Zones

All times are in EDT time to prevent confusion due to time zone crossing. See the UAL1432 flight status page for this flight to view local times or setup timezone preferences in your user account.

Time Position Orientation Groundspeed Altitude Reporting Facility
EDT Latitude Longitude Course Direction KTS MPH feet Rate Location/Type
Fri 08:39:18 AM 41.3861 -81.8828 212° Southwest 176 203 1,900  Level Cleveland Center
Fri 08:40:12 AM 41.3453 -81.8989 197° South 216 249 3,200 2,379 Climbing Cleveland Center
Fri 08:41:00 AM 41.0651 -81.8377 173° South  Level Estimated
Fri 08:41:14 AM 41.2672 -81.9300 197° South 252 290 6,500  Level Cleveland Center
Fri 08:42:00 AM 40.9504 -81.8320 207° Southwest  Level Estimated
Fri 08:42:16 AM 41.1944 -81.9586 196° South 270 311 9,800  Level Cleveland Center
Fri 08:43:00 AM 40.8697 -81.9402 225° Southwest  Level FlightAware Approximate
Fri 08:43:18 AM 41.1131 -81.9919 197° South 302 348 11,500  Level Cleveland Center
Fri 08:44:00 AM 40.7550 -81.9334 212° Southwest  Level Estimated
Fri 08:44:20 AM 41.0172 -82.0117 189° South 343 395 14,300  Level Cleveland Center
Fri 08:45:22 AM 40.9194 -82.0328 189° South 352 405 16,900 2,274 Climbing Cleveland Center
Fri 08:46:24 AM 40.8303 -82.0944 208° Southwest 358 412 19,000 2,177 Climbing Cleveland Center
Fri 08:47:26 AM 40.7250 -82.1703 209° Southwest 366 421 21,400 2,017 Climbing Cleveland Center
Fri 08:48:20 AM 40.6478 -82.2292 210° Southwest 377 434 22,900 1,655 Climbing Indianapolis Center
Fri 08:49:22 AM 40.5519 -82.3000 209° Southwest 391 450 24,600 1,500 Climbing Indianapolis Center
Fri 08:50:24 AM 40.4539 -82.3711 209° Southwest 398 458 26,000 1,403 Climbing Indianapolis Center
Fri 08:51:26 AM 40.3522 -82.4428 208° Southwest 409 471 27,500 1,415 Climbing Indianapolis Center
Fri 08:52:27 AM 40.2514 -82.5164 209° Southwest 409 471 28,900 1,659 Climbing Indianapolis Center
Fri 08:53:29 AM 40.1306 -82.5811 202° Southwest 414 476 30,900 1,597 Climbing Indianapolis Center
Fri 08:54:31 AM 40.0069 -82.5689 176° South 443 510 32,200 1,268 Climbing Indianapolis Center
Fri 08:55:32 AM 39.8844 -82.5517 174° South 441 507 33,500 1,073 Climbing Indianapolis Center
Fri 08:56:34 AM 39.7639 -82.5350 174° South 436 502 34,400 726 Climbing Indianapolis Center
Fri 08:57:36 AM 39.6422 -82.5183 174° South 438 504 35,000 290 Climbing Indianapolis Center
Fri 08:58:38 AM 39.5194 -82.5003 174° South 440 506 35,000  Level Indianapolis Center
Fri 08:59:40 AM 39.3978 -82.4861 175° South 440 506 35,000  Level Indianapolis Center
Fri 09:00:41 AM 39.2689 -82.4669 173° South 434 499 35,000  Level Indianapolis Center
Fri 09:01:43 AM 39.1500 -82.4517 174° South 431 496 35,000  Level Indianapolis Center
Fri 09:02:45 AM 39.0308 -82.4342 173° South 431 496 35,000  Level Indianapolis Center
Fri 09:03:47 AM 38.8881 -82.4153 174° South 431 496 35,000  Level Indianapolis Center
Fri 09:04:49 AM 38.7694 -82.4003 174° South 430 495 35,000  Level Indianapolis Center
Fri 09:05:50 AM 38.6500 -82.3839 174° South 432 497 35,000  Level Indianapolis Center
Fri 09:06:52 AM 38.5319 -82.3692 174° South 429 494 35,000  Level Indianapolis Center
Fri 09:07:54 AM 38.4122 -82.3519 174° South 433 498 35,000  Level Indianapolis Center
Fri 09:08:56 AM 38.2931 -82.3375 175° South 431 496 35,000  Level Indianapolis Center
Fri 09:09:58 AM 38.1503 -82.3172 174° South 432 497 35,000  Level Indianapolis Center
Fri 09:11:00 AM 38.0311 -82.3042 175° South 426 490 35,000  Level Indianapolis Center
Fri 09:12:01 AM 37.9119 -82.2875 174° South 428 493 35,000  Level Indianapolis Center
Fri 09:13:03 AM 37.7919 -82.2703 174° South 433 498 35,000  Level Indianapolis Center
Fri 09:14:05 AM 37.6728 -82.2547 174° South 430 495 35,000  Level Indianapolis Center
Fri 09:15:07 AM 37.5544 -82.2408 175° South 426 490 35,000  Level Indianapolis Center
Fri 09:16:09 AM 37.4358 -82.2258 174° South 426 490 35,000  Level Indianapolis Center
Fri 09:17:11 AM 37.2944 -82.2086 174° South 432 497 35,000  Level Indianapolis Center
Fri 09:18:13 AM 37.1739 -82.1919 174° South 432 497 35,000  Level Indianapolis Center
Fri 09:19:15 AM 37.0497 -82.1594 168° South 463 533 35,000 97 Level Indianapolis Center
Fri 09:20:17 AM 36.9278 -82.0886 155° Southeast 480 552 35,200 484 Climbing Indianapolis Center
Fri 09:21:19 AM 36.8067 -82.0172 155° Southeast 478 550 36,000 387 Climbing Indianapolis Center
Fri 09:22:21 AM 36.6856 -81.9478 155° Southeast 475 547 36,000  Level Indianapolis Center
Fri 09:23:23 AM 36.5636 -81.8775 155° Southeast 480 552 36,000  Level Indianapolis Center
Fri 09:24:25 AM 36.4233 -81.7958 155° Southeast 476 548 36,000  Level Indianapolis Center
Fri 09:25:26 AM 36.3014 -81.7261 155° Southeast 477 549 36,000  Level Indianapolis Center
Fri 09:26:31 AM 36.1669 -81.6725 162° South 474 545 36,000  Level Atlanta Center
Fri 09:27:31 AM 36.0433 -81.6556 174° South 456 525 36,000  Level Atlanta Center
Fri 09:28:31 AM 35.9203 -81.6439 176° South 451 519 36,000  Level Atlanta Center
Fri 09:29:31 AM 35.7947 -81.6269 174° South 451 519 36,000  Level Atlanta Center
Fri 09:30:31 AM 35.6650 -81.6131 175° South 458 527 36,000  Level Atlanta Center
Fri 09:31:31 AM 35.5375 -81.6014 176° South 464 534 36,000  Level Atlanta Center
Fri 09:32:31 AM 35.4100 -81.5850 174° South 464 534 36,000  Level Atlanta Center
Fri 09:33:31 AM 35.2822 -81.5658 173° South 464 534 36,000  Level Atlanta Center
Fri 09:34:31 AM 35.1569 -81.5517 175° South 457 526 36,000  Level Atlanta Center
Fri 09:35:31 AM 35.0314 -81.5353 174° South 451 519 36,000  Level Atlanta Center
Fri 09:37:02 AM 34.8469 -81.5089 173° South 446 513 36,000  Level Jacksonville Center
Fri 09:38:02 AM 34.7236 -81.4956 175° South 452 520 36,000  Level Jacksonville Center
Fri 09:39:02 AM 34.6025 -81.4825 175° South 446 513 36,000  Level Jacksonville Center
Fri 09:40:02 AM 34.4794 -81.4669 174° South 446 513 36,000  Level Jacksonville Center
Fri 09:41:02 AM 34.3561 -81.4539 175° South 446 513 36,000  Level Jacksonville Center
Fri 09:42:02 AM 34.2328 -81.4383 174° South 446 513 36,000  Level Jacksonville Center
Fri 09:43:02 AM 34.1075 -81.4228 174° South 446 513 36,000  Level Jacksonville Center
Fri 09:44:02 AM 33.9842 -81.4075 174° South 446 513 36,000  Level Jacksonville Center
Fri 09:45:02 AM 33.8567 -81.3944 175° South 452 520 36,000  Level Jacksonville Center
Fri 09:46:02 AM 33.7292 -81.3792 174° South 458 527 36,000  Level Jacksonville Center
Fri 09:47:02 AM 33.6017 -81.3639 174° South 464 534 36,000 -50 Level Jacksonville Center
Fri 09:48:02 AM 33.4764 -81.3536 176° South 464 534 35,900  Descending Jacksonville Center
Fri 09:49:02 AM 33.3489 -81.3386 174° South 464 534 36,000 50 Climbing Jacksonville Center
Fri 09:50:02 AM 33.2236 -81.3258 175° South 464 534 36,000 -50 Level Jacksonville Center
Fri 09:51:02 AM 33.0981 -81.3106 174° South 464 534 35,900  Descending Jacksonville Center
Fri 09:52:02 AM 32.9728 -81.2956 174° South 459 528 36,000 50 Climbing Jacksonville Center
Fri 09:53:02 AM 32.8494 -81.2828 175° South 459 528 36,000  Level Jacksonville Center
Fri 09:54:02 AM 32.7239 -81.2678 174° South 459 528 36,000  Level Jacksonville Center
Fri 09:55:02 AM 32.6131 -81.2550 174° South 448 516 36,000  Level Jacksonville Center
Fri 09:56:02 AM 32.4772 -81.2403 175° South 443 510 36,000  Level Jacksonville Center
Fri 09:57:02 AM 32.3478 -81.2278 175° South 456 525 36,000  Level Jacksonville Center
Fri 09:58:02 AM 32.2203 -81.2228 178° South 461 531 36,000 -50 Level Jacksonville Center
Fri 09:59:02 AM 32.0992 -81.2200 179° South 453 521 35,900 -50 Descending Jacksonville Center
Fri 10:00:02 AM 31.9717 -81.2125 177° South 448 516 35,900 50 Level Jacksonville Center
Fri 10:01:02 AM 31.8506 -81.2075 178° South 448 516 36,000 50 Climbing Jacksonville Center
Fri 10:02:02 AM 31.7272 -81.2022 178° South 448 516 36,000 -300 Level Jacksonville Center
Fri 10:03:02 AM 31.6144 -81.1969 178° South 447 514 35,400 -800 Descending Jacksonville Center
Fri 10:04:02 AM 31.4767 -81.1922 178° South 447 514 34,400 -700 Descending Jacksonville Center
Fri 10:05:02 AM 31.3597 -81.1869 178° South 463 533 34,000 -200 Descending Jacksonville Center
Fri 10:06:02 AM 31.2344 -81.1869 180° South 463 533 34,000  Level Jacksonville Center
Fri 10:07:02 AM 31.1069 -81.1819 178° South 458 527 34,000  Level Jacksonville Center
Fri 10:08:02 AM 30.9772 -81.1747 177° South 458 527 34,000  Level Jacksonville Center
Fri 10:09:02 AM 30.8542 -81.1697 178° South 458 527 34,000 -50 Level Jacksonville Center
Fri 10:10:02 AM 30.7267 -81.1647 178° South 458 527 33,900  Descending Jacksonville Center
Fri 10:11:02 AM 30.6033 -81.1597 178° South 458 527 34,000 50 Climbing Jacksonville Center
Fri 10:12:02 AM 30.4781 -81.1547 178° South 458 527 34,000  Level Jacksonville Center
Fri 10:13:02 AM 30.3528 -81.1522 179° South 458 527 34,000  Level Jacksonville Center
Fri 10:14:02 AM 30.2275 -81.1472 178° South 458 527 34,000 -1,150 Level Jacksonville Center
Fri 10:15:02 AM 30.0981 -81.1425 178° South 458 527 31,700 -2,650 Descending Jacksonville Center
Fri 10:16:02 AM 29.9664 -81.1375 178° South 464 534 28,700 -2,700 Descending Jacksonville Center
Fri 10:17:02 AM 29.8369 -81.1328 178° South 469 540 26,300 -2,250 Descending Jacksonville Center
Fri 10:18:02 AM 29.7094 -81.1328 180° South 469 540 24,200 -2,250 Descending Jacksonville Center
Fri 10:19:02 AM 29.5864 -81.1278 178° South 453 521 21,800 -2,300 Descending Jacksonville Center
Fri 10:20:02 AM 29.4608 -81.1203 177° South 428 493 19,600 -2,150 Descending Jacksonville Center
Fri 10:21:02 AM 29.3522 -81.1153 178° South 402 463 17,500 -2,200 Descending Jacksonville Center
Fri 10:22:02 AM 29.2436 -81.1125 179° South 395 455 15,200 -2,200 Descending Jacksonville Center
Fri 10:23:02 AM 29.1414 -81.1025 175° South 390 449 13,100 -1,500 Descending Jacksonville Center
Fri 10:24:02 AM 29.0453 -81.0947 176° South 371 427 12,200 -850 Descending Jacksonville Center
Fri 10:25:02 AM 28.9594 -81.0797 171° South 341 392 11,400 -1,250 Descending Jacksonville Center
Fri 10:26:02 AM 28.8778 -81.0692 174° South 314 361 9,700 -1,714 Descending Jacksonville Center
Fri 10:26:33 AM 28.8333 -81.0667 177° South 292 336 8,800 -1,765 Descending Orlando TRACON
Fri 10:27:27 AM 28.7667 -81.0667 180° South 272 313 7,200 -1,304 Descending Orlando TRACON
Fri 10:28:28 AM 28.7333 -81.1500 245° Southwest 255 293 6,300 -1,370 Descending Orlando TRACON
Fri 10:29:34 AM 28.7167 -81.2167 254° West 226 260 4,300 -1,429 Descending Orlando TRACON
Fri 10:30:34 AM 28.6667 -81.2667 221° Southwest 216 249 3,300 -714 Descending Orlando TRACON
Fri 10:31:40 AM 28.6167 -81.3000 210° Southwest 210 242 2,800 -397 Descending Orlando TRACON
Fri 10:32:35 AM 28.5667 -81.3167 196° South 186 214 2,500 -626 Descending Orlando TRACON
Fri 10:33:35 AM 28.5167 -81.3333 196° South 164 189 1,600 -909 Descending Orlando TRACON
Fri 10:34:47 AM 28.4667 -81.3333 180° South 158 182 500 -917 Descending Orlando TRACON

Login

Don't have an account? Register now (free) for customized features, flight alerts, and more!